Magnolia, Alabama
Current Conditions -  °F | °C
As of 5:55 PM on Wednesday 22 Oct 2014 (Local Time) from KDYA Reporting Station
Clear Clear  
Wind Chill: 64°   Ceiling: Unl
Heat Index: 64°   Visibility: 10mi
Dew Point: 42°   Wind: 5mph
Humidity: 44%   Direction: 360°N
Pressure: 30.09"   Gusts: NA
Location:  32.14°N, 87.67°W
Report Text: KDYA 222255Z AUTO 36004KT 10SM CLR 18/05 A3009 RMK AO2 T01800054
Loading
Personal Weather Stations






























Interactive Weather Map
Tropical Storm Tracking
New forecast layout! Learn more

10-Day Weather Forecast

Advertisements
Track Severe Weather on mobile